Time;durP1;ratioP1;P1;durP2;ratioP2;P2;SDS_P1;SDS_P2;PMS_P1;PMS_P2;Temp;Humidity;BMP_temperature;BMP_pressure;BME280_temperature;BME280_humidity;BME280_pressure;Samples;Min_cycle;Max_cycle;Signal;HPM_P1;HPM_P2
2023/04/04 00:02:05;;;;;;;4.10;2.60;;;;;;;;;;5115465;28;20470;-73
2023/04/04 00:04:32;;;;;;;4.27;2.07;;;;;;;;;;5115221;28;20460;-73
2023/04/04 00:06:59;;;;;;;8.50;2.57;;;;;;;;;;5114776;28;20456;-72
2023/04/04 00:09:27;;;;;;;6.13;3.10;;;;;;;;;;5115431;28;20931;-72
2023/04/04 00:11:54;;;;;;;4.73;2.73;;;;;;;;;;5115147;28;20500;-73
2023/04/04 00:14:22;;;;;;;3.63;2.60;;;;;;;;;;5115078;28;20456;-72
2023/04/04 00:16:49;;;;;;;6.63;2.40;;;;;;;;;;5115092;27;20851;-72
2023/04/04 00:19:17;;;;;;;2.50;2.10;;;;;;;;;;5115221;27;20450;-73
2023/04/04 00:21:45;;;;;;;5.00;2.40;;;;;;;;;;5115106;28;20490;-72
2023/04/04 00:24:12;;;;;;;3.73;2.60;;;;;;;;;;5114556;28;20454;-72
2023/04/04 00:26:41;;;;;;;4.33;2.93;;;;;;;;;;5114966;28;20446;-72
2023/04/04 00:29:08;;;;;;;5.17;2.40;;;;;;;;;;5114777;28;20457;-72
2023/04/04 00:31:35;;;;;;;11.83;4.90;;;;;;;;;;5114671;28;20469;-72
2023/04/04 00:34:02;;;;;;;3.73;2.93;;;;;;;;;;5114665;28;20477;-72
2023/04/04 00:36:29;;;;;;;5.63;3.13;;;;;;;;;;5114460;27;20496;-73
2023/04/04 00:38:56;;;;;;;9.63;2.80;;;;;;;;;;5114663;27;20832;-73
2023/04/04 00:41:23;;;;;;;5.40;2.70;;;;;;;;;;5114637;28;20480;-72
2023/04/04 00:43:52;;;;;;;5.20;3.20;;;;;;;;;;5114438;28;20825;-72
2023/04/04 00:46:19;;;;;;;4.30;2.70;;;;;;;;;;5114455;28;20438;-72
2023/04/04 00:48:47;;;;;;;4.33;2.90;;;;;;;;;;5115767;28;20461;-72
2023/04/04 00:51:15;;;;;;;7.00;3.00;;;;;;;;;;5115794;28;20527;-72
2023/04/04 00:53:45;;;;;;;4.13;2.57;;;;;;;;;;5115910;28;20545;-72
2023/04/04 00:56:12;;;;;;;4.13;2.40;;;;;;;;;;5115426;28;20489;-71
2023/04/04 00:58:40;;;;;;;2.30;1.83;;;;;;;;;;5115749;28;20464;-72
2023/04/04 01:01:09;;;;;;;4.07;2.03;;;;;;;;;;5115419;28;20473;-72
2023/04/04 01:03:38;;;;;;;3.10;2.47;;;;;;;;;;5115300;28;20454;-72
2023/04/04 01:06:06;;;;;;;3.40;2.40;;;;;;;;;;5114349;28;20964;-72
2023/04/04 01:08:33;;;;;;;3.37;2.50;;;;;;;;;;5114852;28;20544;-72
2023/04/04 01:11:01;;;;;;;7.40;2.30;;;;;;;;;;5113506;28;20486;-72
2023/04/04 01:13:29;;;;;;;5.80;2.33;;;;;;;;;;5113400;27;20452;-71
2023/04/04 01:15:56;;;;;;;4.40;2.77;;;;;;;;;;5113250;28;20494;-71
2023/04/04 01:18:25;;;;;;;8.20;3.33;;;;;;;;;;5113779;28;20450;-71
2023/04/04 01:20:56;;;;;;;7.80;3.03;;;;;;;;;;5113921;28;20456;-71
2023/04/04 01:23:25;;;;;;;4.07;2.67;;;;;;;;;;5113929;28;20454;-71
2023/04/04 01:26:02;;;;;;;3.13;2.40;;;;;;;;;;5113804;28;20456;-70
2023/04/04 01:28:29;;;;;;;11.27;3.40;;;;;;;;;;5113984;28;20473;-70
2023/04/04 01:30:58;;;;;;;5.20;2.43;;;;;;;;;;5113660;28;20481;-70
2023/04/04 01:33:28;;;;;;;5.97;2.90;;;;;;;;;;5113697;28;20460;-70
2023/04/04 01:35:59;;;;;;;4.77;2.93;;;;;;;;;;5113838;28;21070;-70
2023/04/04 01:38:31;;;;;;;7.03;3.00;;;;;;;;;;5113846;28;20951;-70
2023/04/04 01:41:01;;;;;;;5.53;2.50;;;;;;;;;;5113803;28;20527;-70
2023/04/04 01:43:31;;;;;;;6.10;2.80;;;;;;;;;;5113259;28;20959;-70
2023/04/04 01:45:59;;;;;;;3.57;2.27;;;;;;;;;;5113599;28;20441;-70
2023/04/04 01:48:26;;;;;;;2.53;2.30;;;;;;;;;;5113537;28;20545;-71
2023/04/04 01:50:53;;;;;;;6.57;3.27;;;;;;;;;;5113704;28;20536;-71
2023/04/04 01:53:21;;;;;;;8.30;3.30;;;;;;;;;;5113440;28;20485;-70
2023/04/04 01:55:48;;;;;;;5.00;2.90;;;;;;;;;;5113169;28;20478;-70
2023/04/04 01:58:15;;;;;;;4.60;3.30;;;;;;;;;;5113550;28;20536;-70
2023/04/04 02:00:43;;;;;;;5.00;3.60;;;;;;;;;;5113476;28;20450;-70
2023/04/04 02:03:10;;;;;;;5.07;3.40;;;;;;;;;;5113417;28;20963;-71
2023/04/04 02:05:38;;;;;;;8.13;2.97;;;;;;;;;;5113369;28;20449;-71
2023/04/04 02:08:05;;;;;;;4.70;2.80;;;;;;;;;;5112949;28;20445;-71
2023/04/04 02:10:33;;;;;;;3.30;2.90;;;;;;;;;;5112855;28;20453;-71
2023/04/04 02:13:00;;;;;;;2.60;2.40;;;;;;;;;;5113277;28;20457;-71
2023/04/04 02:15:27;;;;;;;4.80;3.20;;;;;;;;;;5112966;28;20476;-72
2023/04/04 02:17:56;;;;;;;7.20;3.17;;;;;;;;;;5115472;28;20449;-71
2023/04/04 02:20:23;;;;;;;4.87;3.13;;;;;;;;;;5117497;28;20445;-71
2023/04/04 02:22:53;;;;;;;6.73;3.47;;;;;;;;;;5117469;28;20993;-72
2023/04/04 02:25:21;;;;;;;6.33;3.40;;;;;;;;;;5117248;27;20461;-71
2023/04/04 02:27:48;;;;;;;6.83;3.67;;;;;;;;;;5117242;28;20492;-71
2023/04/04 02:30:15;;;;;;;4.60;3.00;;;;;;;;;;5117262;28;20454;-71
2023/04/04 02:32:42;;;;;;;3.47;2.83;;;;;;;;;;5117197;28;20583;-71
2023/04/04 02:35:11;;;;;;;3.10;2.80;;;;;;;;;;5117176;28;20502;-71
2023/04/04 02:37:38;;;;;;;5.60;3.53;;;;;;;;;;5117581;27;20496;-71
2023/04/04 02:40:06;;;;;;;13.70;7.23;;;;;;;;;;5117451;28;20445;-71
2023/04/04 02:42:33;;;;;;;3.67;3.07;;;;;;;;;;5117268;28;20552;-71
2023/04/04 02:45:00;;;;;;;8.70;3.30;;;;;;;;;;5116989;28;20955;-71
2023/04/04 02:47:27;;;;;;;3.10;2.73;;;;;;;;;;5117466;28;20445;-71
2023/04/04 02:49:54;;;;;;;3.40;2.90;;;;;;;;;;5117251;28;20986;-71
2023/04/04 02:52:23;;;;;;;4.50;2.97;;;;;;;;;;5117002;28;20505;-71
2023/04/04 02:54:50;;;;;;;5.37;3.10;;;;;;;;;;5117027;28;20449;-71
2023/04/04 02:57:17;;;;;;;3.17;2.70;;;;;;;;;;5116722;28;20492;-71
2023/04/04 02:59:44;;;;;;;8.90;2.97;;;;;;;;;;5116777;27;20459;-72
2023/04/04 03:02:11;;;;;;;5.57;3.23;;;;;;;;;;5116675;28;20552;-71
2023/04/04 03:04:38;;;;;;;5.07;3.20;;;;;;;;;;5116981;28;20445;-71
2023/04/04 03:07:05;;;;;;;12.90;4.57;;;;;;;;;;5117072;28;20446;-71
2023/04/04 03:09:34;;;;;;;5.73;3.10;;;;;;;;;;5117034;27;20430;-71
2023/04/04 03:12:03;;;;;;;10.23;3.90;;;;;;;;;;5116567;27;20530;-71
2023/04/04 03:14:30;;;;;;;8.20;3.43;;;;;;;;;;5116869;28;20939;-71
2023/04/04 03:16:58;;;;;;;3.90;3.50;;;;;;;;;;5116537;28;21002;-71
2023/04/04 03:19:25;;;;;;;5.30;4.10;;;;;;;;;;5116892;28;20458;-71
2023/04/04 03:21:52;;;;;;;3.90;3.50;;;;;;;;;;5116746;28;20470;-71
2023/04/04 03:24:19;;;;;;;7.00;3.30;;;;;;;;;;5116470;28;20441;-71
2023/04/04 03:26:48;;;;;;;6.00;3.57;;;;;;;;;;5116707;28;20437;-71
2023/04/04 03:29:15;;;;;;;6.90;3.53;;;;;;;;;;5116076;27;20899;-72
2023/04/04 03:31:42;;;;;;;4.63;3.30;;;;;;;;;;5116469;28;20472;-71
2023/04/04 03:34:09;;;;;;;4.73;2.90;;;;;;;;;;5116717;28;20931;-71
2023/04/04 03:36:36;;;;;;;3.00;2.60;;;;;;;;;;5116060;27;20529;-71
2023/04/04 03:39:04;;;;;;;6.73;3.27;;;;;;;;;;5116356;28;20464;-71
2023/04/04 03:41:31;;;;;;;7.23;3.20;;;;;;;;;;5116428;28;20480;-71
2023/04/04 03:43:59;;;;;;;5.70;4.43;;;;;;;;;;5116096;28;20552;-71
2023/04/04 03:46:27;;;;;;;6.10;3.17;;;;;;;;;;5116307;28;20450;-71
2023/04/04 03:48:54;;;;;;;6.97;3.17;;;;;;;;;;5116304;28;20554;-71
2023/04/04 03:51:24;;;;;;;4.50;3.10;;;;;;;;;;5116250;28;20474;-71
2023/04/04 03:53:51;;;;;;;5.90;3.30;;;;;;;;;;5116334;28;20442;-71
2023/04/04 03:56:19;;;;;;;7.70;3.63;;;;;;;;;;5115894;28;20581;-71
2023/04/04 03:58:46;;;;;;;8.10;3.50;;;;;;;;;;5116040;27;20449;-71
2023/04/04 04:01:15;;;;;;;4.47;2.57;;;;;;;;;;5115733;28;20470;-71
2023/04/04 04:03:42;;;;;;;16.00;3.50;;;;;;;;;;5115705;28;20450;-71
2023/04/04 04:06:09;;;;;;;5.23;3.63;;;;;;;;;;5116467;28;20807;-71
2023/04/04 04:08:37;;;;;;;2.90;2.60;;;;;;;;;;5116435;28;20464;-71
2023/04/04 04:11:05;;;;;;;9.77;5.20;;;;;;;;;;5116065;28;20461;-71
2023/04/04 04:13:32;;;;;;;6.10;4.13;;;;;;;;;;5115705;28;20466;-71
2023/04/04 04:15:59;;;;;;;5.63;3.30;;;;;;;;;;5115953;28;20977;-71
2023/04/04 04:18:27;;;;;;;4.13;3.27;;;;;;;;;;5115679;28;20900;-71
2023/04/04 04:20:58;;;;;;;6.60;4.67;;;;;;;;;;5115809;28;20594;-71
2023/04/04 04:23:25;;;;;;;6.17;3.03;;;;;;;;;;5115552;28;21115;-72
2023/04/04 04:25:52;;;;;;;2.87;2.10;;;;;;;;;;5115279;28;20448;-71
2023/04/04 04:28:19;;;;;;;4.03;3.17;;;;;;;;;;5115599;28;20966;-71
2023/04/04 04:30:47;;;;;;;6.10;3.20;;;;;;;;;;5115592;28;20442;-71
2023/04/04 04:33:14;;;;;;;3.93;3.27;;;;;;;;;;5115331;28;20461;-71
2023/04/04 04:35:43;;;;;;;5.50;3.70;;;;;;;;;;5115245;28;20466;-71
2023/04/04 04:38:10;;;;;;;4.03;3.70;;;;;;;;;;5115031;28;20489;-71
2023/04/04 04:40:38;;;;;;;6.53;3.00;;;;;;;;;;5115296;28;20449;-71
2023/04/04 04:43:05;;;;;;;5.63;3.40;;;;;;;;;;5114639;28;20466;-72
2023/04/04 04:45:32;;;;;;;5.60;2.90;;;;;;;;;;5114302;28;20456;-71
2023/04/04 04:47:59;;;;;;;3.83;2.90;;;;;;;;;;5114671;28;20445;-72
2023/04/04 04:50:26;;;;;;;4.93;3.23;;;;;;;;;;5114744;28;20461;-71
2023/04/04 04:52:55;;;;;;;3.30;3.03;;;;;;;;;;5114721;28;20488;-69
2023/04/04 04:55:22;;;;;;;3.40;3.10;;;;;;;;;;5114171;28;20454;-69
2023/04/04 04:57:49;;;;;;;6.30;4.40;;;;;;;;;;5114470;28;20488;-69
2023/04/04 05:00:17;;;;;;;4.33;3.93;;;;;;;;;;5114310;28;20449;-69
2023/04/04 05:02:44;;;;;;;15.93;3.87;;;;;;;;;;5114071;28;20473;-70
2023/04/04 05:05:11;;;;;;;7.13;4.50;;;;;;;;;;5113936;28;20500;-70
2023/04/04 05:07:38;;;;;;;6.63;4.07;;;;;;;;;;5113709;28;20795;-69
2023/04/04 05:10:07;;;;;;;4.53;3.40;;;;;;;;;;5114081;28;20448;-69
2023/04/04 05:12:34;;;;;;;3.73;3.43;;;;;;;;;;5114086;28;20480;-70
2023/04/04 05:15:01;;;;;;;8.27;3.33;;;;;;;;;;5114058;28;20454;-70
2023/04/04 05:17:29;;;;;;;5.20;3.70;;;;;;;;;;5113834;28;20485;-70
2023/04/04 05:19:56;;;;;;;6.03;3.70;;;;;;;;;;5114157;28;20453;-70
2023/04/04 05:22:23;;;;;;;4.13;3.50;;;;;;;;;;5113983;28;20473;-69
2023/04/04 05:24:50;;;;;;;8.77;3.80;;;;;;;;;;5113729;28;20473;-70
2023/04/04 05:27:18;;;;;;;7.23;3.20;;;;;;;;;;5109826;28;20458;-69
2023/04/04 05:29:47;;;;;;;10.57;3.57;;;;;;;;;;5093404;28;20927;-69
2023/04/04 05:32:14;;;;;;;7.40;3.73;;;;;;;;;;5093173;28;20527;-69
2023/04/04 05:34:41;;;;;;;15.20;4.43;;;;;;;;;;5093053;28;20463;-69
2023/04/04 05:37:09;;;;;;;3.40;2.93;;;;;;;;;;5092937;28;20482;-69
2023/04/04 05:39:36;;;;;;;4.80;3.07;;;;;;;;;;5093164;28;20458;-69
2023/04/04 05:42:03;;;;;;;8.03;3.60;;;;;;;;;;5093125;28;20845;-69
2023/04/04 05:44:32;;;;;;;8.13;4.70;;;;;;;;;;5092611;28;20533;-69
2023/04/04 05:46:59;;;;;;;4.13;3.23;;;;;;;;;;5092986;28;20454;-69
2023/04/04 05:49:26;;;;;;;5.97;4.17;;;;;;;;;;5092739;28;20461;-69
2023/04/04 05:51:55;;;;;;;6.47;3.20;;;;;;;;;;5092739;28;20816;-69
2023/04/04 05:54:22;;;;;;;9.73;4.40;;;;;;;;;;5092734;28;20459;-69
2023/04/04 05:56:49;;;;;;;8.37;4.23;;;;;;;;;;5092848;28;20454;-69
2023/04/04 05:59:17;;;;;;;7.43;4.20;;;;;;;;;;5092880;28;20822;-69
2023/04/04 06:01:46;;;;;;;8.60;5.23;;;;;;;;;;5092913;28;20496;-69
2023/04/04 06:04:13;;;;;;;4.77;4.10;;;;;;;;;;5092657;28;20940;-69
2023/04/04 06:06:40;;;;;;;5.23;4.20;;;;;;;;;;5092539;28;20455;-69
2023/04/04 06:09:07;;;;;;;9.03;3.47;;;;;;;;;;5092856;28;20548;-69
2023/04/04 06:11:35;;;;;;;5.70;4.43;;;;;;;;;;5092316;28;20504;-70
2023/04/04 06:14:02;;;;;;;9.03;4.90;;;;;;;;;;5093699;28;20458;-69
2023/04/04 06:16:29;;;;;;;3.60;3.27;;;;;;;;;;5112937;28;20465;-69
2023/04/04 06:18:57;;;;;;;10.20;4.77;;;;;;;;;;5113062;28;20485;-69
2023/04/04 06:21:25;;;;;;;7.97;4.90;;;;;;;;;;5112825;28;20496;-69
2023/04/04 06:23:52;;;;;;;5.20;4.10;;;;;;;;;;5112776;28;20473;-70
2023/04/04 06:26:19;;;;;;;10.20;4.40;;;;;;;;;;5113018;28;20958;-70
2023/04/04 06:28:49;;;;;;;5.90;3.77;;;;;;;;;;5113227;28;20455;-70
2023/04/04 06:31:16;;;;;;;7.10;3.73;;;;;;;;;;5113216;28;20473;-70
2023/04/04 06:33:44;;;;;;;7.00;4.20;;;;;;;;;;5112939;28;20449;-70
2023/04/04 06:36:12;;;;;;;6.60;4.23;;;;;;;;;;5112812;28;20453;-70
2023/04/04 06:38:39;;;;;;;6.70;5.67;;;;;;;;;;5111920;28;21029;-70
2023/04/04 06:41:07;;;;;;;6.60;3.63;;;;;;;;;;5112745;28;20986;-70
2023/04/04 06:43:34;;;;;;;6.37;4.33;;;;;;;;;;5112345;28;20477;-70
2023/04/04 06:46:01;;;;;;;5.40;4.50;;;;;;;;;;5112678;28;20459;-70
2023/04/04 06:48:28;;;;;;;6.47;4.53;;;;;;;;;;5112627;28;20848;-70
2023/04/04 06:50:55;;;;;;;7.90;4.50;;;;;;;;;;5112891;28;20476;-70
2023/04/04 06:53:25;;;;;;;6.50;4.00;;;;;;;;;;5112545;28;20553;-70
2023/04/04 06:55:53;;;;;;;9.50;5.17;;;;;;;;;;5112533;28;20461;-70
2023/04/04 06:58:20;;;;;;;6.93;5.30;;;;;;;;;;5112607;28;20485;-70
2023/04/04 07:00:47;;;;;;;15.17;6.90;;;;;;;;;;5112668;28;20545;-70
2023/04/04 07:03:15;;;;;;;12.00;6.13;;;;;;;;;;5112667;28;20461;-70
2023/04/04 07:05:42;;;;;;;4.80;4.03;;;;;;;;;;5115648;28;20546;-70
2023/04/04 07:08:10;;;;;;;9.37;4.20;;;;;;;;;;5116209;27;20437;-70
2023/04/04 07:10:38;;;;;;;4.83;4.33;;;;;;;;;;5116221;28;20469;-70
2023/04/04 07:13:05;;;;;;;5.23;4.57;;;;;;;;;;5116229;28;20454;-71
2023/04/04 07:15:32;;;;;;;5.07;3.97;;;;;;;;;;5115984;28;20445;-71
2023/04/04 07:18:00;;;;;;;8.60;4.50;;;;;;;;;;5116125;27;20490;-71
2023/04/04 07:20:27;;;;;;;4.10;3.50;;;;;;;;;;5116049;28;20880;-71
2023/04/04 07:22:55;;;;;;;3.47;2.70;;;;;;;;;;5115925;28;20879;-71
2023/04/04 07:25:22;;;;;;;4.67;2.70;;;;;;;;;;5115949;28;20453;-72
2023/04/04 07:27:50;;;;;;;5.57;4.10;;;;;;;;;;5116108;27;20450;-73
2023/04/04 07:30:17;;;;;;;4.90;4.30;;;;;;;;;;5115838;28;20450;-73
2023/04/04 07:32:44;;;;;;;6.97;4.80;;;;;;;;;;5115812;28;20469;-73
2023/04/04 07:35:12;;;;;;;6.30;3.67;;;;;;;;;;5115519;28;20458;-72
2023/04/04 07:37:39;;;;;;;7.40;5.03;;;;;;;;;;5115983;28;20485;-72
2023/04/04 07:40:08;;;;;;;9.13;4.10;;;;;;;;;;5116021;27;20458;-73
2023/04/04 07:42:36;;;;;;;5.70;4.47;;;;;;;;;;5111030;28;20530;-74
2023/04/04 07:45:05;;;;;;;4.67;3.50;;;;;;;;;;5112114;28;20558;-73
2023/04/04 07:47:32;;;;;;;2.37;1.97;;;;;;;;;;5114056;27;20453;-72
2023/04/04 07:50:00;;;;;;;13.57;5.00;;;;;;;;;;5114691;27;20794;-72
2023/04/04 07:52:27;;;;;;;7.27;4.87;;;;;;;;;;5113992;28;20546;-72
2023/04/04 07:54:54;;;;;;;5.03;4.10;;;;;;;;;;5114556;28;20938;-72
2023/04/04 07:57:21;;;;;;;6.07;4.43;;;;;;;;;;5114890;28;20942;-73
2023/04/04 07:59:48;;;;;;;6.60;4.23;;;;;;;;;;5114575;28;20456;-73
2023/04/04 08:02:17;;;;;;;7.23;5.70;;;;;;;;;;5114385;28;20470;-73
2023/04/04 08:04:44;;;;;;;8.93;4.90;;;;;;;;;;5116145;28;20461;-72
2023/04/04 08:07:11;;;;;;;6.53;4.13;;;;;;;;;;5115286;28;20483;-72
2023/04/04 08:09:38;;;;;;;9.40;3.53;;;;;;;;;;5115697;28;20441;-72
2023/04/04 08:12:05;;;;;;;11.80;4.73;;;;;;;;;;5115269;28;20474;-73
2023/04/04 08:14:32;;;;;;;5.37;3.37;;;;;;;;;;5114376;28;20450;-72
2023/04/04 08:17:00;;;;;;;6.10;4.20;;;;;;;;;;5114016;28;20449;-73
2023/04/04 08:19:28;;;;;;;16.93;6.20;;;;;;;;;;5113647;28;20550;-73
2023/04/04 08:21:55;;;;;;;6.23;3.30;;;;;;;;;;5113950;28;20478;-73
2023/04/04 08:24:23;;;;;;;5.70;3.40;;;;;;;;;;5113813;28;20457;-73
2023/04/04 08:26:50;;;;;;;25.03;9.40;;;;;;;;;;5113847;28;20454;-72
2023/04/04 08:29:17;;;;;;;5.83;5.00;;;;;;;;;;5113520;28;20506;-73
2023/04/04 08:31:44;;;;;;;14.87;4.00;;;;;;;;;;5113942;28;20839;-72
2023/04/04 08:34:12;;;;;;;60.17;19.83;;;;;;;;;;5113661;28;20454;-73
2023/04/04 08:36:41;;;;;;;38.40;12.23;;;;;;;;;;5114098;28;20460;-72
2023/04/04 08:39:08;;;;;;;13.53;4.90;;;;;;;;;;5114471;27;20489;-72
2023/04/04 08:41:36;;;;;;;9.30;6.60;;;;;;;;;;5114505;28;20474;-72
2023/04/04 08:44:04;;;;;;;7.57;4.80;;;;;;;;;;5114443;28;20465;-73
2023/04/04 08:46:31;;;;;;;6.80;4.40;;;;;;;;;;5114555;28;20457;-73
2023/04/04 08:48:59;;;;;;;4.20;3.73;;;;;;;;;;5114401;28;20454;-73
2023/04/04 08:51:27;;;;;;;5.20;3.57;;;;;;;;;;5114196;28;20477;-72
2023/04/04 08:53:56;;;;;;;6.63;5.50;;;;;;;;;;5114392;28;20803;-72
2023/04/04 08:56:24;;;;;;;6.57;4.70;;;;;;;;;;5114211;28;20972;-72
2023/04/04 08:58:51;;;;;;;3.77;3.37;;;;;;;;;;5114303;28;20489;-73
2023/04/04 09:01:18;;;;;;;11.00;7.33;;;;;;;;;;5114297;28;20473;-73
2023/04/04 09:03:46;;;;;;;6.93;4.17;;;;;;;;;;5114272;28;20453;-73
2023/04/04 09:06:13;;;;;;;6.30;4.83;;;;;;;;;;5113704;28;20454;-71
2023/04/04 09:08:41;;;;;;;6.80;4.00;;;;;;;;;;5114392;28;20441;-71
2023/04/04 09:11:09;;;;;;;18.20;7.27;;;;;;;;;;5114079;28;20465;-72
2023/04/04 09:13:39;;;;;;;21.10;14.87;;;;;;;;;;5113961;28;20486;-71
2023/04/04 09:16:06;;;;;;;5.80;4.70;;;;;;;;;;5113989;28;20460;-72
2023/04/04 09:18:33;;;;;;;6.00;3.80;;;;;;;;;;5113934;28;20517;-72
2023/04/04 09:21:00;;;;;;;4.13;3.57;;;;;;;;;;5114029;28;20469;-71
2023/04/04 09:23:27;;;;;;;14.97;8.80;;;;;;;;;;5113816;28;20453;-72
2023/04/04 09:25:55;;;;;;;8.23;5.77;;;;;;;;;;5113729;28;20449;-72
2023/04/04 09:28:24;;;;;;;10.17;7.10;;;;;;;;;;5113171;28;20819;-71
2023/04/04 09:30:51;;;;;;;7.33;5.30;;;;;;;;;;5113674;28;20454;-71
2023/04/04 09:33:19;;;;;;;3.33;3.00;;;;;;;;;;5113767;28;20453;-72
2023/04/04 09:35:47;;;;;;;4.13;3.73;;;;;;;;;;5113917;28;20460;-71
2023/04/04 09:38:16;;;;;;;3.30;2.60;;;;;;;;;;5113778;28;20485;-70
2023/04/04 09:40:43;;;;;;;4.70;3.40;;;;;;;;;;5113614;28;20458;-71
2023/04/04 09:43:12;;;;;;;18.27;10.57;;;;;;;;;;5113710;28;20472;-71
2023/04/04 09:45:42;;;;;;;11.43;9.33;;;;;;;;;;5113450;28;20938;-71
2023/04/04 09:48:11;;;;;;;10.30;8.93;;;;;;;;;;5113976;28;20930;-71
2023/04/04 09:50:38;;;;;;;6.10;3.67;;;;;;;;;;5113774;28;20958;-73
2023/04/04 09:53:06;;;;;;;9.23;7.50;;;;;;;;;;5113696;28;20456;-70
2023/04/04 09:55:35;;;;;;;5.07;3.40;;;;;;;;;;5113415;28;20888;-71
2023/04/04 09:58:12;;;;;;;2.60;2.10;;;;;;;;;;5114504;28;20507;-71
2023/04/04 10:00:46;;;;;;;4.10;3.70;;;;;;;;;;5114168;28;20429;-72
2023/04/04 10:03:15;;;;;;;3.77;3.30;;;;;;;;;;5113913;28;20944;-71
2023/04/04 10:05:42;;;;;;;28.40;15.53;;;;;;;;;;5113642;28;20464;-71
2023/04/04 10:08:17;;;;;;;6.90;5.20;;;;;;;;;;5113490;28;20938;-71
2023/04/04 10:10:51;;;;;;;8.40;5.30;;;;;;;;;;5113627;28;20433;-72
2023/04/04 10:13:27;;;;;;;3.73;3.37;;;;;;;;;;5113590;28;20477;-72
2023/04/04 10:15:56;;;;;;;6.13;4.13;;;;;;;;;;5113556;28;20461;-72
2023/04/04 10:18:24;;;;;;;7.20;3.50;;;;;;;;;;5113355;28;20456;-72
2023/04/04 10:20:51;;;;;;;4.03;2.93;;;;;;;;;;5113377;28;20453;-72
2023/04/04 10:23:19;;;;;;;6.97;3.80;;;;;;;;;;5113419;28;20454;-72
2023/04/04 10:25:48;;;;;;;9.70;4.20;;;;;;;;;;5114014;28;20453;-73
2023/04/04 10:28:15;;;;;;;4.33;3.93;;;;;;;;;;5113803;28;20465;-72
2023/04/04 10:30:45;;;;;;;5.77;4.10;;;;;;;;;;5113162;28;20996;-72
2023/04/04 10:33:16;;;;;;;13.30;3.80;;;;;;;;;;5113636;28;20457;-75
2023/04/04 10:35:45;;;;;;;4.37;3.77;;;;;;;;;;5113124;28;20434;-72
2023/04/04 10:38:12;;;;;;;6.87;3.73;;;;;;;;;;5114187;28;20481;-72
2023/04/04 10:40:41;;;;;;;6.50;4.20;;;;;;;;;;5117183;28;20450;-72
2023/04/04 10:43:08;;;;;;;4.37;3.80;;;;;;;;;;5117077;28;20465;-72
2023/04/04 10:45:37;;;;;;;4.07;3.67;;;;;;;;;;5117068;28;20448;-72
2023/04/04 10:48:05;;;;;;;3.43;3.13;;;;;;;;;;5117331;28;20445;-72
2023/04/04 10:50:34;;;;;;;5.57;3.23;;;;;;;;;;5117235;28;20791;-72
2023/04/04 10:53:03;;;;;;;5.73;3.70;;;;;;;;;;5116957;28;20453;-72
2023/04/04 10:55:31;;;;;;;3.23;2.50;;;;;;;;;;5116767;28;20456;-72
2023/04/04 10:57:58;;;;;;;3.93;3.53;;;;;;;;;;5116817;28;20450;-72
2023/04/04 11:00:26;;;;;;;5.90;4.60;;;;;;;;;;5116683;28;20485;-71
2023/04/04 11:02:55;;;;;;;5.17;4.13;;;;;;;;;;5116681;28;20480;-72
2023/04/04 11:05:24;;;;;;;4.80;2.80;;;;;;;;;;5116692;28;20582;-72
2023/04/04 11:07:59;;;;;;;7.33;3.90;;;;;;;;;;5116791;28;20805;-72
2023/04/04 11:10:28;;;;;;;5.17;3.90;;;;;;;;;;5116693;28;20481;-72
2023/04/04 11:12:56;;;;;;;3.87;2.93;;;;;;;;;;5116600;28;20492;-72
2023/04/04 11:15:24;;;;;;;4.47;3.07;;;;;;;;;;5116482;28;20457;-72
2023/04/04 11:18:01;;;;;;;5.97;4.23;;;;;;;;;;5116794;27;20453;-72
2023/04/04 11:20:30;;;;;;;3.23;3.00;;;;;;;;;;5116330;28;20524;-72
2023/04/04 11:23:15;;;;;;;4.00;3.30;;;;;;;;;;5116293;27;20887;-72
2023/04/04 11:25:43;;;;;;;11.07;4.20;;;;;;;;;;5116227;28;20506;-72
2023/04/04 11:28:14;;;;;;;8.10;5.90;;;;;;;;;;5116021;28;20445;-72
2023/04/04 11:30:47;;;;;;;4.60;2.73;;;;;;;;;;5116195;28;20446;-71
2023/04/04 11:33:15;;;;;;;18.60;9.63;;;;;;;;;;5116045;28;20485;-72
2023/04/04 11:35:47;;;;;;;5.90;4.70;;;;;;;;;;5116047;28;20825;-72
2023/04/04 11:38:16;;;;;;;19.23;10.40;;;;;;;;;;5116017;28;20890;-72
2023/04/04 11:40:53;;;;;;;10.53;7.30;;;;;;;;;;5115523;28;20554;-72
2023/04/04 11:43:21;;;;;;;3.83;3.23;;;;;;;;;;5115597;28;20484;-72
2023/04/04 11:45:48;;;;;;;4.03;2.87;;;;;;;;;;5115615;28;20449;-72
2023/04/04 11:48:16;;;;;;;3.73;3.23;;;;;;;;;;5115760;28;20833;-72
2023/04/04 11:50:48;;;;;;;7.30;3.20;;;;;;;;;;5114999;28;20449;-72
2023/04/04 11:53:16;;;;;;;5.03;3.97;;;;;;;;;;5115462;28;20481;-71
2023/04/04 11:55:46;;;;;;;4.03;3.00;;;;;;;;;;5115585;28;20453;-72
2023/04/04 11:58:14;;;;;;;4.03;3.63;;;;;;;;;;5115559;28;20504;-72
2023/04/04 12:00:42;;;;;;;10.73;6.03;;;;;;;;;;5115663;28;20848;-72
2023/04/04 12:03:11;;;;;;;3.50;2.47;;;;;;;;;;5115418;28;20553;-72
2023/04/04 12:05:39;;;;;;;4.37;3.53;;;;;;;;;;5115272;28;20453;-72
2023/04/04 12:08:07;;;;;;;3.93;2.90;;;;;;;;;;5115150;28;20457;-73
2023/04/04 12:10:36;;;;;;;4.47;2.97;;;;;;;;;;5115500;28;20461;-73
2023/04/04 12:13:07;;;;;;;4.50;3.10;;;;;;;;;;5115501;28;20454;-72
2023/04/04 12:15:34;;;;;;;3.93;3.23;;;;;;;;;;5115471;28;20855;-72
2023/04/04 12:18:02;;;;;;;3.43;2.93;;;;;;;;;;5115397;28;20549;-72
2023/04/04 12:20:31;;;;;;;3.73;3.17;;;;;;;;;;5115303;28;20542;-72
2023/04/04 12:22:58;;;;;;;4.23;3.10;;;;;;;;;;5115178;28;20829;-72
2023/04/04 12:25:27;;;;;;;4.63;3.73;;;;;;;;;;5114959;28;20470;-72
2023/04/04 12:27:56;;;;;;;6.00;4.40;;;;;;;;;;5115482;28;20545;-72
2023/04/04 12:30:23;;;;;;;3.83;3.20;;;;;;;;;;5115203;28;20450;-72
2023/04/04 12:32:51;;;;;;;5.10;4.60;;;;;;;;;;5114955;28;20470;-72
2023/04/04 12:35:18;;;;;;;4.40;3.20;;;;;;;;;;5115068;28;20449;-71
2023/04/04 12:38:01;;;;;;;3.87;3.20;;;;;;;;;;5114911;28;20503;-72
2023/04/04 12:40:36;;;;;;;4.13;3.73;;;;;;;;;;5115015;28;20486;-71
2023/04/04 12:43:06;;;;;;;6.17;3.40;;;;;;;;;;5114623;28;20473;-71
2023/04/04 12:45:33;;;;;;;4.37;3.10;;;;;;;;;;5115264;28;20454;-72
2023/04/04 12:48:01;;;;;;;2.90;2.70;;;;;;;;;;5114704;28;20445;-72
2023/04/04 12:50:28;;;;;;;2.80;2.60;;;;;;;;;;5114642;28;20453;-72
2023/04/04 12:52:56;;;;;;;5.83;3.77;;;;;;;;;;5114538;28;20477;-72
2023/04/04 12:55:24;;;;;;;4.60;3.30;;;;;;;;;;5114897;28;20793;-71
2023/04/04 12:57:51;;;;;;;4.27;3.67;;;;;;;;;;5114823;28;20822;-71
2023/04/04 13:00:24;;;;;;;3.23;2.93;;;;;;;;;;5114910;28;20477;-71
2023/04/04 13:02:51;;;;;;;7.07;4.30;;;;;;;;;;5113298;28;20480;-72
2023/04/04 13:05:20;;;;;;;3.23;2.80;;;;;;;;;;5114180;28;20457;-71
2023/04/04 13:07:48;;;;;;;7.03;3.63;;;;;;;;;;5113779;28;20518;-72
2023/04/04 13:10:17;;;;;;;6.40;3.47;;;;;;;;;;5114076;27;20450;-71
2023/04/04 13:12:57;;;;;;;6.10;4.03;;;;;;;;;;5114373;28;20482;-72
2023/04/04 13:15:46;;;;;;;2.63;2.43;;;;;;;;;;5114034;28;20453;-72
2023/04/04 13:18:14;;;;;;;4.80;3.00;;;;;;;;;;5113929;28;20508;-72
2023/04/04 13:20:42;;;;;;;4.10;3.70;;;;;;;;;;5113884;28;20492;-72
2023/04/04 13:23:09;;;;;;;5.53;3.37;;;;;;;;;;5113910;28;20969;-71
2023/04/04 13:25:36;;;;;;;7.10;3.23;;;;;;;;;;5113739;28;20458;-71
2023/04/04 13:28:03;;;;;;;4.70;2.90;;;;;;;;;;5113781;28;20450;-72
2023/04/04 13:30:32;;;;;;;5.50;3.70;;;;;;;;;;5113758;28;20970;-72
2023/04/04 13:32:59;;;;;;;7.20;4.43;;;;;;;;;;5113637;28;20474;-71
2023/04/04 13:35:26;;;;;;;4.93;3.40;;;;;;;;;;5113509;28;20946;-71
2023/04/04 13:37:54;;;;;;;4.67;3.10;;;;;;;;;;5113838;28;20997;-72
2023/04/04 13:40:21;;;;;;;3.50;2.80;;;;;;;;;;5113353;28;20493;-72
2023/04/04 13:42:49;;;;;;;5.30;3.20;;;;;;;;;;5113510;28;20519;-71
2023/04/04 13:45:17;;;;;;;3.17;2.70;;;;;;;;;;5113327;28;20462;-72
2023/04/04 13:47:45;;;;;;;6.63;3.77;;;;;;;;;;5113596;28;20453;-71
2023/04/04 13:50:13;;;;;;;4.47;3.30;;;;;;;;;;5112954;28;20468;-72
2023/04/04 13:52:40;;;;;;;5.00;3.50;;;;;;;;;;5113455;28;20473;-72
2023/04/04 13:55:08;;;;;;;8.83;3.13;;;;;;;;;;5113389;28;20485;-72
2023/04/04 13:57:35;;;;;;;4.17;3.37;;;;;;;;;;5113386;28;20457;-72
2023/04/04 14:00:03;;;;;;;6.07;3.70;;;;;;;;;;5113556;28;20485;-72
2023/04/04 14:02:30;;;;;;;4.77;3.33;;;;;;;;;;5113358;28;20534;-74
2023/04/04 14:04:59;;;;;;;4.10;3.37;;;;;;;;;;5113249;28;20969;-71
2023/04/04 14:07:26;;;;;;;3.43;3.13;;;;;;;;;;5112927;28;20454;-71
2023/04/04 14:09:53;;;;;;;5.13;3.53;;;;;;;;;;5113969;28;20453;-71
2023/04/04 14:12:20;;;;;;;5.93;3.80;;;;;;;;;;5113103;28;20486;-71
2023/04/04 14:14:47;;;;;;;8.10;3.60;;;;;;;;;;5117362;28;20456;-71
2023/04/04 14:17:14;;;;;;;6.90;3.67;;;;;;;;;;5117541;28;20972;-71
2023/04/04 14:19:43;;;;;;;4.53;2.70;;;;;;;;;;5118018;28;20500;-71
2023/04/04 14:22:11;;;;;;;8.00;4.37;;;;;;;;;;5117248;28;20492;-71
2023/04/04 14:24:38;;;;;;;3.70;3.40;;;;;;;;;;5117268;28;20458;-71
2023/04/04 14:27:05;;;;;;;6.30;3.90;;;;;;;;;;5116649;28;20470;-71
2023/04/04 14:29:32;;;;;;;5.30;4.17;;;;;;;;;;5117489;28;20453;-71
2023/04/04 14:32:00;;;;;;;8.77;6.47;;;;;;;;;;5117259;27;20476;-71
2023/04/04 14:34:27;;;;;;;6.50;3.67;;;;;;;;;;5117038;28;20856;-71
2023/04/04 14:36:54;;;;;;;4.13;3.73;;;;;;;;;;5117284;27;20461;-71
2023/04/04 14:39:22;;;;;;;11.37;5.27;;;;;;;;;;5116866;28;20544;-71
2023/04/04 14:41:50;;;;;;;12.20;6.17;;;;;;;;;;5116917;28;20481;-71
2023/04/04 14:44:17;;;;;;;18.70;10.40;;;;;;;;;;5116684;27;20465;-71
2023/04/04 14:46:44;;;;;;;4.70;3.73;;;;;;;;;;5116923;28;20450;-71